createdAt,value
2023-04-11T00:00:14.879Z,75.72
2023-04-11T00:03:02.529Z,75.70
2023-04-11T00:05:30.912Z,75.72
2023-04-11T00:07:58.237Z,76.04
2023-04-11T00:10:25.592Z,76.12
2023-04-11T00:12:55.806Z,76.45
2023-04-11T00:15:23.929Z,76.58
2023-04-11T00:17:53.017Z,77.13
2023-04-11T00:20:20.665Z,78.46
2023-04-11T00:22:48.086Z,78.15
2023-04-11T00:25:15.530Z,78.62
2023-04-11T00:27:43.147Z,79.29
2023-04-11T00:30:11.573Z,79.80
2023-04-11T00:32:39.168Z,79.46
2023-04-11T00:35:08.248Z,79.65
2023-04-11T00:37:36.312Z,79.80
2023-04-11T00:40:06.118Z,80.50
2023-04-11T00:42:33.481Z,80.67
2023-04-11T00:45:01.254Z,80.80
2023-04-11T00:47:28.717Z,80.53
2023-04-11T00:49:56.142Z,80.28
2023-04-11T00:52:23.828Z,80.70
2023-04-11T00:54:51.465Z,80.16
2023-04-11T00:57:18.920Z,80.15
2023-04-11T00:59:48.069Z,79.84
2023-04-11T01:02:17.465Z,79.95
2023-04-11T01:04:45.793Z,80.10
2023-04-11T01:07:13.379Z,79.61
2023-04-11T01:09:40.811Z,80.22
2023-04-11T01:12:08.356Z,79.74
2023-04-11T01:14:35.857Z,79.48
2023-04-11T01:17:03.330Z,79.14
2023-04-11T01:19:30.792Z,79.33
2023-04-11T01:21:59.370Z,79.33
2023-04-11T01:24:26.932Z,78.94
2023-04-11T01:26:54.390Z,78.84
2023-04-11T01:29:21.893Z,78.72
2023-04-11T01:31:49.796Z,78.81
2023-04-11T01:34:17.839Z,78.67
2023-04-11T01:36:45.255Z,79.02
2023-04-11T01:39:12.991Z,79.27
2023-04-11T01:41:40.523Z,79.46
2023-04-11T01:44:08.269Z,79.43
2023-04-11T01:46:35.926Z,79.48
2023-04-11T01:49:03.772Z,79.75
2023-04-11T01:51:31.493Z,79.91
2023-04-11T01:53:58.915Z,79.82
2023-04-11T01:56:26.470Z,79.97
2023-04-11T01:58:54.361Z,80.02
2023-04-11T02:01:22.224Z,79.99
2023-04-11T02:03:49.871Z,80.66
2023-04-11T02:06:17.504Z,80.58
2023-04-11T02:08:45.258Z,80.47
2023-04-11T02:11:13.062Z,80.53
2023-04-11T02:13:40.488Z,80.39
2023-04-11T02:16:09.736Z,80.58
2023-04-11T02:18:37.313Z,80.20
2023-04-11T02:21:05.548Z,79.83
2023-04-11T02:23:33.336Z,79.72
2023-04-11T02:26:01.291Z,79.88
2023-04-11T02:28:28.683Z,79.82
2023-04-11T02:30:56.223Z,80.02
2023-04-11T02:33:23.793Z,79.90
2023-04-11T02:35:51.294Z,79.73
2023-04-11T02:38:18.798Z,80.25
2023-04-11T02:40:46.493Z,80.80
2023-04-11T02:43:14.459Z,80.85
2023-04-11T02:45:41.950Z,81.08
2023-04-11T02:48:09.424Z,81.36
2023-04-11T02:50:40.173Z,81.92
2023-04-11T02:53:07.996Z,81.80
2023-04-11T02:55:35.453Z,82.05
2023-04-11T02:58:02.871Z,82.12
2023-04-11T03:00:30.780Z,81.61
2023-04-11T03:02:58.949Z,81.66
2023-04-11T03:05:26.414Z,81.74
2023-04-11T03:07:54.306Z,81.29
2023-04-11T03:10:21.738Z,81.12
2023-04-11T03:12:49.273Z,81.41
2023-04-11T03:15:17.071Z,81.45
2023-04-11T03:17:44.485Z,81.47
2023-04-11T03:20:13.067Z,81.78
2023-04-11T03:22:40.572Z,81.99
2023-04-11T03:25:09.806Z,82.34
2023-04-11T03:27:37.497Z,82.33
2023-04-11T03:30:05.890Z,82.09
2023-04-11T03:32:33.446Z,81.96
2023-04-11T03:35:01.260Z,81.95
2023-04-11T03:37:28.685Z,82.06
2023-04-11T03:39:56.060Z,82.04
2023-04-11T03:42:23.644Z,81.79
2023-04-11T03:44:51.425Z,81.89
2023-04-11T03:47:18.845Z,81.83
2023-04-11T03:49:46.261Z,82.07
2023-04-11T03:52:16.904Z,82.68
2023-04-11T03:54:46.359Z,82.85
2023-04-11T03:57:15.336Z,83.31
2023-04-11T03:59:42.791Z,83.46
2023-04-11T04:02:10.706Z,83.38
2023-04-11T04:04:39.795Z,83.72
2023-04-11T04:07:09.702Z,83.86
2023-04-11T04:09:40.466Z,84.31
2023-04-11T04:12:08.103Z,84.50
2023-04-11T04:14:35.593Z,84.48
2023-04-11T04:17:03.436Z,84.50
2023-04-11T04:19:30.883Z,84.22
2023-04-11T04:21:58.385Z,84.30
2023-04-11T04:24:25.869Z,84.16
2023-04-11T04:26:53.632Z,84.20
2023-04-11T04:29:21.035Z,84.44
2023-04-11T04:31:50.072Z,84.36
2023-04-11T04:34:21.280Z,84.25
2023-04-11T04:36:49.004Z,84.13
2023-04-11T04:39:17.136Z,84.08
2023-04-11T04:41:45.188Z,84.55
2023-04-11T04:44:15.228Z,84.26
2023-04-11T04:46:42.701Z,84.81
2023-04-11T04:49:10.304Z,84.85
2023-04-11T04:51:39.798Z,84.61
2023-04-11T04:54:09.458Z,84.08
2023-04-11T04:56:36.892Z,85.15
2023-04-11T04:59:04.370Z,84.84
2023-04-11T05:01:32.385Z,84.57
2023-04-11T05:04:00.591Z,84.73
2023-04-11T05:06:28.765Z,84.81
2023-04-11T05:08:56.575Z,84.45
2023-04-11T05:11:24.046Z,84.43
2023-04-11T05:13:51.538Z,84.37
2023-04-11T05:16:19.221Z,84.47
2023-04-11T05:18:46.663Z,84.60
2023-04-11T05:21:14.490Z,84.87
2023-04-11T05:23:42.311Z,84.50
2023-04-11T05:26:10.229Z,84.79
2023-04-11T05:28:38.020Z,84.57
2023-04-11T05:31:06.335Z,85.01
2023-04-11T05:33:34.203Z,85.46
2023-04-11T05:36:01.931Z,85.73
2023-04-11T05:38:31.280Z,85.71
2023-04-11T05:40:58.633Z,85.47
2023-04-11T05:43:26.330Z,85.27
2023-04-11T05:45:53.854Z,85.71
2023-04-11T05:48:22.345Z,85.82
2023-04-11T05:50:50.296Z,86.23
2023-04-11T05:53:17.962Z,86.40
2023-04-11T05:55:48.289Z,86.47
2023-04-11T05:58:15.969Z,86.63
2023-04-11T06:00:45.590Z,86.60
2023-04-11T06:03:13.793Z,86.36
2023-04-11T06:05:41.365Z,87.26
2023-04-11T06:08:09.533Z,86.93
2023-04-11T06:10:36.939Z,87.27
2023-04-11T06:13:04.514Z,87.29
2023-04-11T06:15:32.110Z,86.97
2023-04-11T06:17:59.624Z,86.82
2023-04-11T06:20:27.479Z,86.67
2023-04-11T06:22:56.589Z,86.38
2023-04-11T06:25:24.199Z,86.29
2023-04-11T06:27:51.733Z,86.27
2023-04-11T06:30:19.319Z,86.31
2023-04-11T06:32:46.704Z,86.29
2023-04-11T06:35:14.351Z,86.00
2023-04-11T06:37:42.111Z,85.97
2023-04-11T06:40:10.702Z,85.64
2023-04-11T06:42:38.198Z,85.43
2023-04-11T06:45:07.066Z,85.37
2023-04-11T06:47:34.789Z,85.18
2023-04-11T06:50:02.380Z,85.12
2023-04-11T06:52:30.230Z,85.01
2023-04-11T06:54:57.669Z,84.70
2023-04-11T06:57:25.298Z,84.84
2023-04-11T06:59:52.865Z,84.90
2023-04-11T07:02:21.432Z,84.67
2023-04-11T07:04:48.880Z,84.02
2023-04-11T07:07:16.438Z,84.11
2023-04-11T07:09:43.949Z,84.08
2023-04-11T07:12:11.397Z,84.05
2023-04-11T07:14:38.789Z,83.75
2023-04-11T07:17:06.329Z,83.75
2023-04-11T07:19:33.888Z,83.41
2023-04-11T07:22:01.510Z,83.43
2023-04-11T07:24:29.963Z,83.03
2023-04-11T07:26:58.576Z,82.74
2023-04-11T07:29:26.148Z,82.62
2023-04-11T07:31:53.579Z,82.55
2023-04-11T07:34:21.357Z,81.90
2023-04-11T07:36:49.570Z,80.46
2023-04-11T07:39:17.338Z,80.35
2023-04-11T07:41:44.849Z,80.14
2023-04-11T07:44:12.340Z,79.44
2023-04-11T07:46:42.193Z,78.72
2023-04-11T07:49:09.749Z,77.63
2023-04-11T07:51:37.763Z,76.53
2023-04-11T07:54:05.595Z,76.02
2023-04-11T07:56:33.077Z,76.03
2023-04-11T07:59:00.719Z,76.34
2023-04-11T08:01:28.571Z,76.31
2023-04-11T08:03:56.462Z,75.04
2023-04-11T08:06:24.472Z,74.24
2023-04-11T08:08:52.195Z,73.59
2023-04-11T08:11:20.499Z,72.73
2023-04-11T08:13:48.036Z,71.01
2023-04-11T08:16:15.689Z,70.42
2023-04-11T08:18:45.038Z,69.92
2023-04-11T08:21:13.178Z,68.33
2023-04-11T08:23:41.549Z,66.65
2023-04-11T08:26:09.110Z,67.06
2023-04-11T08:28:36.813Z,65.21
2023-04-11T08:31:05.478Z,64.30
2023-04-11T08:33:32.980Z,63.88
2023-04-11T08:36:00.663Z,63.01
2023-04-11T08:38:28.459Z,63.40
2023-04-11T08:40:58.003Z,62.98
2023-04-11T08:43:25.785Z,60.95
2023-04-11T08:45:53.766Z,60.57
2023-04-11T08:48:24.779Z,59.37
2023-04-11T08:50:52.196Z,59.77
2023-04-11T08:53:20.799Z,59.57
2023-04-11T08:55:48.340Z,59.43
2023-04-11T08:58:16.182Z,58.50
2023-04-11T09:00:43.589Z,60.19
2023-04-11T09:03:12.070Z,57.45
2023-04-11T09:05:40.626Z,57.78
2023-04-11T09:08:08.810Z,56.92
2023-04-11T09:10:36.914Z,57.83
2023-04-11T09:13:14.970Z,56.19
2023-04-11T09:15:43.038Z,55.97
2023-04-11T09:18:11.012Z,55.52
2023-04-11T09:20:38.524Z,55.37
2023-04-11T09:23:06.015Z,53.99
2023-04-11T09:25:37.924Z,54.19
2023-04-11T09:28:09.492Z,53.02
2023-04-11T09:30:37.301Z,53.00
2023-04-11T09:33:18.850Z,53.35
2023-04-11T09:35:47.364Z,51.83
2023-04-11T09:38:15.101Z,50.89
2023-04-11T09:40:42.833Z,48.39
2023-04-11T09:43:10.898Z,48.44
2023-04-11T09:45:51.712Z,47.05
2023-04-11T09:48:29.233Z,47.25
2023-04-11T09:51:04.550Z,46.32
2023-04-11T09:53:33.636Z,47.00
2023-04-11T09:56:01.051Z,47.58
2023-04-11T09:58:30.868Z,47.02
2023-04-11T10:00:59.240Z,45.11
2023-04-11T10:03:27.033Z,44.38
2023-04-11T10:05:54.967Z,45.03
2023-04-11T10:08:26.228Z,44.72
2023-04-11T10:10:53.716Z,44.62
2023-04-11T10:13:40.858Z,45.20
2023-04-11T10:16:09.186Z,46.33
2023-04-11T10:18:36.750Z,47.03
2023-04-11T10:21:05.220Z,46.88
2023-04-11T10:23:40.855Z,46.46
2023-04-11T10:26:10.044Z,46.00
2023-04-11T10:28:38.061Z,45.73
2023-04-11T10:31:12.495Z,45.96
2023-04-11T10:33:59.997Z,45.72
2023-04-11T10:36:27.469Z,46.11
2023-04-11T10:38:55.098Z,45.58
2023-04-11T10:41:26.633Z,45.34
2023-04-11T10:44:12.659Z,46.22
2023-04-11T10:46:44.208Z,46.04
2023-04-11T10:49:11.707Z,45.42
2023-04-11T10:51:39.602Z,44.08
2023-04-11T10:54:07.514Z,44.74
2023-04-11T10:56:52.826Z,45.10
2023-04-11T10:59:38.536Z,44.55
2023-04-11T11:02:06.821Z,43.14
2023-04-11T11:04:35.275Z,42.49
2023-04-11T11:07:03.632Z,41.08
2023-04-11T11:09:31.568Z,40.38
2023-04-11T11:12:06.531Z,41.31
2023-04-11T11:14:34.237Z,42.54
2023-04-11T11:17:02.412Z,41.33
2023-04-11T11:19:29.931Z,41.30
2023-04-11T11:22:00.709Z,40.96
2023-04-11T11:24:28.313Z,40.88
2023-04-11T11:26:59.160Z,40.77
2023-04-11T11:29:30.822Z,41.14
2023-04-11T11:31:58.402Z,41.11
2023-04-11T11:34:30.394Z,42.62
2023-04-11T11:36:58.958Z,43.06
2023-04-11T11:39:26.842Z,42.79
2023-04-11T11:41:54.305Z,42.40
2023-04-11T11:44:22.623Z,41.77
2023-04-11T11:47:03.092Z,41.60
2023-04-11T11:49:44.108Z,42.47
2023-04-11T11:52:12.093Z,42.39
2023-04-11T11:54:46.591Z,42.82
2023-04-11T11:57:20.386Z,42.16
2023-04-11T11:59:52.954Z,42.40
2023-04-11T12:02:20.989Z,42.61
2023-04-11T12:04:48.673Z,42.69
2023-04-11T12:07:21.090Z,42.95
2023-04-11T12:09:48.798Z,43.48
2023-04-11T12:12:16.691Z,43.62
2023-04-11T12:14:57.296Z,43.64
2023-04-11T12:17:25.222Z,43.33
2023-04-11T12:19:55.476Z,43.47
2023-04-11T12:22:22.972Z,43.74
2023-04-11T12:24:52.550Z,44.22
2023-04-11T12:27:20.347Z,44.60
2023-04-11T12:29:47.817Z,43.64
2023-04-11T12:32:15.836Z,43.57
2023-04-11T12:34:45.820Z,43.26
2023-04-11T12:37:13.236Z,41.93
2023-04-11T12:39:41.746Z,41.60
2023-04-11T12:42:10.641Z,41.50
2023-04-11T12:44:39.136Z,41.79
2023-04-11T12:47:07.394Z,41.48
2023-04-11T12:49:35.247Z,41.48
2023-04-11T12:52:02.730Z,41.31
2023-04-11T12:54:30.391Z,41.98
2023-04-11T12:56:59.609Z,42.25
2023-04-11T12:59:27.105Z,42.90
2023-04-11T13:01:55.978Z,43.33
2023-04-11T13:04:23.857Z,44.22
2023-04-11T13:06:52.544Z,44.42
2023-04-11T13:09:20.430Z,44.71
2023-04-11T13:11:48.093Z,44.81
2023-04-11T13:14:15.783Z,44.56
2023-04-11T13:16:45.337Z,44.53
2023-04-11T13:19:12.848Z,44.22
2023-04-11T13:21:45.467Z,44.29
2023-04-11T13:24:13.258Z,44.23
2023-04-11T13:26:40.931Z,44.68
2023-04-11T13:29:08.431Z,44.68
2023-04-11T13:31:36.703Z,44.77
2023-04-11T13:34:06.336Z,44.71
2023-04-11T13:36:34.843Z,44.53
2023-04-11T13:39:04.257Z,45.04
2023-04-11T13:41:32.139Z,45.08
2023-04-11T13:43:59.722Z,45.20
2023-04-11T13:46:28.506Z,44.41
2023-04-11T13:48:56.181Z,44.16
2023-04-11T13:51:24.066Z,44.03
2023-04-11T13:53:51.682Z,43.70
2023-04-11T13:56:20.065Z,42.13
2023-04-11T13:58:48.928Z,41.87
2023-04-11T14:01:18.227Z,41.78
2023-04-11T14:03:46.040Z,41.80
2023-04-11T14:06:13.832Z,42.34
2023-04-11T14:08:42.073Z,42.32
2023-04-11T14:11:10.061Z,42.39
2023-04-11T14:13:37.571Z,42.77
2023-04-11T14:16:09.249Z,43.06
2023-04-11T14:18:37.350Z,43.19
2023-04-11T14:21:07.016Z,43.57
2023-04-11T14:23:35.230Z,43.73
2023-04-11T14:26:02.719Z,43.98
2023-04-11T14:28:30.533Z,43.94
2023-04-11T14:30:58.137Z,43.65
2023-04-11T14:33:26.579Z,43.56
2023-04-11T14:35:54.080Z,43.14
2023-04-11T14:38:21.765Z,42.94
2023-04-11T14:40:49.102Z,42.55
2023-04-11T14:43:16.600Z,42.23
2023-04-11T14:45:44.447Z,41.77
2023-04-11T14:48:11.919Z,41.42
2023-04-11T14:50:40.113Z,41.22
2023-04-11T14:53:09.055Z,40.62
2023-04-11T14:55:39.051Z,40.69
2023-04-11T14:58:07.092Z,41.21
2023-04-11T15:00:34.827Z,41.11
2023-04-11T15:03:03.453Z,40.03
2023-04-11T15:05:31.519Z,39.96
2023-04-11T15:07:58.979Z,39.79
2023-04-11T15:10:26.389Z,40.08
2023-04-11T15:12:54.089Z,40.23
2023-04-11T15:15:22.521Z,40.20
2023-04-11T15:17:50.540Z,40.58
2023-04-11T15:20:19.394Z,40.61
2023-04-11T15:22:47.527Z,41.00
2023-04-11T15:25:14.977Z,40.93
2023-04-11T15:27:42.611Z,41.22
2023-04-11T15:30:10.825Z,41.62
2023-04-11T15:32:39.784Z,41.61
2023-04-11T15:35:08.440Z,42.08
2023-04-11T15:37:35.794Z,41.76
2023-04-11T15:40:05.334Z,42.20
2023-04-11T15:42:34.647Z,42.52
2023-04-11T15:45:02.428Z,42.33
2023-04-11T15:47:29.973Z,42.49
2023-04-11T15:50:01.217Z,42.61
2023-04-11T15:52:28.770Z,42.31
2023-04-11T15:54:56.888Z,41.91
2023-04-11T15:57:25.868Z,41.11
2023-04-11T15:59:53.384Z,41.01
2023-04-11T16:02:20.912Z,41.43
2023-04-11T16:04:52.156Z,42.17
2023-04-11T16:07:22.470Z,42.70
2023-04-11T16:09:49.851Z,43.38
2023-04-11T16:12:17.918Z,43.63
2023-04-11T16:14:45.436Z,43.79
2023-04-11T16:17:14.757Z,43.30
2023-04-11T16:19:42.495Z,42.68
2023-04-11T16:22:10.320Z,42.82
2023-04-11T16:24:37.786Z,43.29
2023-04-11T16:27:05.302Z,43.57
2023-04-11T16:29:33.054Z,44.03
2023-04-11T16:32:00.508Z,44.56
2023-04-11T16:34:28.023Z,45.20
2023-04-11T16:36:55.783Z,45.64
2023-04-11T16:39:23.254Z,45.98
2023-04-11T16:41:50.870Z,46.54
2023-04-11T16:44:18.287Z,47.17
2023-04-11T16:46:45.729Z,47.32
2023-04-11T16:49:15.071Z,47.77
2023-04-11T16:51:45.808Z,48.34
2023-04-11T16:54:13.566Z,48.66
2023-04-11T16:56:41.036Z,49.07
2023-04-11T16:59:11.680Z,49.35
2023-04-11T17:01:40.374Z,49.52
2023-04-11T17:04:08.154Z,50.02
2023-04-11T17:06:36.789Z,50.25
2023-04-11T17:09:05.706Z,50.46
2023-04-11T17:11:33.215Z,50.79
2023-04-11T17:14:02.117Z,50.71
2023-04-11T17:16:30.510Z,51.12
2023-04-11T17:18:58.124Z,51.27
2023-04-11T17:21:26.895Z,51.48
2023-04-11T17:23:54.319Z,51.41
2023-04-11T17:26:22.312Z,51.60
2023-04-11T17:28:50.410Z,51.78
2023-04-11T17:31:18.177Z,52.14
2023-04-11T17:33:46.210Z,52.22
2023-04-11T17:36:14.157Z,52.40
2023-04-11T17:38:42.669Z,52.35
2023-04-11T17:41:14.826Z,52.42
2023-04-11T17:43:43.450Z,52.55
2023-04-11T17:46:12.500Z,52.68
2023-04-11T17:48:40.257Z,52.93
2023-04-11T17:51:08.139Z,52.94
2023-04-11T17:53:35.730Z,53.29
2023-04-11T17:56:40.110Z,53.17
2023-04-11T17:59:32.087Z,53.44
2023-04-11T18:02:09.816Z,53.50
2023-04-11T18:04:42.392Z,53.93
2023-04-11T18:07:10.670Z,54.47
2023-04-11T18:09:38.441Z,54.57
2023-04-11T18:12:06.431Z,54.54
2023-04-11T18:14:34.103Z,54.68
2023-04-11T18:17:01.657Z,55.01
2023-04-11T18:19:42.753Z,55.21
2023-04-11T18:22:24.950Z,55.49
2023-04-11T18:25:10.117Z,55.71
2023-04-11T18:27:51.515Z,55.79
2023-04-11T18:30:34.534Z,56.47
2023-04-11T18:33:13.794Z,56.55
2023-04-11T18:35:56.911Z,56.38
2023-04-11T18:38:39.610Z,56.46
2023-04-11T18:41:24.796Z,56.80
2023-04-11T18:44:09.764Z,56.83
2023-04-11T18:46:55.502Z,56.96
2023-04-11T18:49:49.777Z,56.97
2023-04-11T18:52:35.095Z,57.13
2023-04-11T18:55:34.889Z,57.23
2023-04-11T18:58:16.949Z,57.37
2023-04-11T19:00:54.948Z,57.46
2023-04-11T19:03:24.581Z,57.98
2023-04-11T19:05:55.510Z,58.00
2023-04-11T19:08:23.438Z,58.01
2023-04-11T19:10:55.262Z,58.19
2023-04-11T19:13:23.077Z,58.40
2023-04-11T19:15:51.241Z,58.67
2023-04-11T19:18:19.375Z,58.32
2023-04-11T19:20:48.374Z,58.37
2023-04-11T19:23:16.617Z,58.61
2023-04-11T19:25:44.797Z,58.98
2023-04-11T19:28:12.630Z,58.81
2023-04-11T19:30:40.620Z,58.96
2023-04-11T19:33:11.600Z,59.03
2023-04-11T19:35:41.520Z,58.92
2023-04-11T19:38:11.933Z,59.34
2023-04-11T19:40:39.969Z,59.51
2023-04-11T19:43:07.959Z,59.38
2023-04-11T19:45:35.997Z,59.81
2023-04-11T19:48:04.050Z,59.86
2023-04-11T19:50:31.735Z,59.83
2023-04-11T19:53:00.973Z,59.85
2023-04-11T19:55:28.710Z,60.07
2023-04-11T19:57:56.525Z,60.19
2023-04-11T20:00:26.524Z,60.13
2023-04-11T20:02:55.245Z,60.85
2023-04-11T20:05:23.305Z,61.22
2023-04-11T20:07:51.601Z,61.01
2023-04-11T20:10:19.122Z,61.53
2023-04-11T20:12:46.830Z,61.25
2023-04-11T20:15:14.588Z,61.46
2023-04-11T20:17:43.732Z,61.46
2023-04-11T20:20:14.673Z,62.01
2023-04-11T20:22:44.087Z,61.76
2023-04-11T20:25:12.008Z,62.07
2023-04-11T20:27:40.152Z,62.41
2023-04-11T20:30:09.992Z,62.32
2023-04-11T20:32:37.574Z,62.30
2023-04-11T20:35:05.686Z,62.63
2023-04-11T20:37:34.481Z,62.53
2023-04-11T20:40:03.962Z,62.46
2023-04-11T20:42:32.057Z,62.53
2023-04-11T20:45:03.107Z,62.37
2023-04-11T20:47:30.692Z,62.95
2023-04-11T20:50:03.407Z,63.05
2023-04-11T20:52:32.117Z,62.61
2023-04-11T20:54:59.638Z,62.92
2023-04-11T20:57:29.361Z,62.56
2023-04-11T20:59:57.962Z,62.95
2023-04-11T21:02:26.108Z,62.90
2023-04-11T21:04:53.709Z,62.95
2023-04-11T21:07:21.784Z,62.77
2023-04-11T21:09:49.468Z,63.05
2023-04-11T21:12:16.927Z,62.96
2023-04-11T21:14:44.410Z,63.07
2023-04-11T21:17:12.428Z,63.11
2023-04-11T21:19:39.817Z,63.53
2023-04-11T21:22:08.989Z,64.15
2023-04-11T21:24:36.866Z,64.36
2023-04-11T21:27:04.513Z,64.72
2023-04-11T21:29:32.319Z,64.37
2023-04-11T21:31:59.818Z,64.13
2023-04-11T21:34:27.363Z,64.47
2023-04-11T21:36:57.639Z,64.31
2023-04-11T21:39:25.075Z,64.50
2023-04-11T21:41:52.481Z,64.39
2023-04-11T21:44:20.067Z,64.18
2023-04-11T21:46:47.613Z,64.06
2023-04-11T21:49:15.088Z,64.27
2023-04-11T21:51:42.681Z,64.30
2023-04-11T21:54:10.379Z,64.59
2023-04-11T21:56:37.761Z,64.27
2023-04-11T21:59:05.258Z,63.83
2023-04-11T22:01:33.243Z,64.75
2023-04-11T22:04:01.696Z,64.58
2023-04-11T22:06:30.017Z,64.45
2023-04-11T22:08:57.656Z,64.59
2023-04-11T22:11:25.175Z,64.63
2023-04-11T22:13:53.140Z,64.54
2023-04-11T22:16:25.794Z,64.60
2023-04-11T22:18:54.131Z,65.05
2023-04-11T22:21:25.717Z,64.86
2023-04-11T22:23:53.874Z,65.10
2023-04-11T22:26:26.134Z,65.38
2023-04-11T22:28:54.039Z,65.58
2023-04-11T22:31:21.974Z,65.49
2023-04-11T22:33:49.512Z,65.50
2023-04-11T22:36:17.172Z,65.54
2023-04-11T22:38:45.078Z,65.69
2023-04-11T22:41:15.854Z,65.92
2023-04-11T22:43:43.488Z,65.76
2023-04-11T22:46:11.075Z,65.98
2023-04-11T22:48:41.290Z,66.05
2023-04-11T22:51:08.834Z,66.48
2023-04-11T22:53:41.738Z,66.36
2023-04-11T22:56:09.822Z,66.67
2023-04-11T22:58:37.270Z,66.56
2023-04-11T23:01:05.137Z,67.23
2023-04-11T23:03:32.630Z,67.43
2023-04-11T23:06:00.185Z,67.79
2023-04-11T23:08:27.848Z,68.76
2023-04-11T23:10:55.537Z,69.12
2023-04-11T23:13:23.070Z,70.05
2023-04-11T23:15:50.491Z,71.15
2023-04-11T23:18:18.833Z,72.29
2023-04-11T23:20:48.773Z,71.92
2023-04-11T23:23:16.174Z,71.80
2023-04-11T23:25:44.728Z,72.06
2023-04-11T23:28:12.111Z,72.44
2023-04-11T23:30:39.760Z,73.41
2023-04-11T23:33:08.332Z,73.13
2023-04-11T23:35:36.411Z,73.75
2023-04-11T23:38:03.916Z,74.30
2023-04-11T23:40:31.949Z,75.50
2023-04-11T23:42:59.399Z,75.45
2023-04-11T23:45:26.828Z,77.18
2023-04-11T23:47:54.592Z,77.34
2023-04-11T23:50:22.215Z,76.54
2023-04-11T23:52:53.161Z,76.39
2023-04-11T23:55:21.167Z,76.86
2023-04-11T23:57:49.021Z,77.73
